createdAt,value
2022-08-04T00:01:54.919Z,99920.97
2022-08-04T00:04:33.436Z,99913.91
2022-08-04T00:07:09.303Z,99915.75
2022-08-04T00:09:44.083Z,99926.47
2022-08-04T00:12:17.205Z,99909.56
2022-08-04T00:14:49.391Z,99912.38
2022-08-04T00:17:21.484Z,99906.19
2022-08-04T00:19:54.376Z,99904.44
2022-08-04T00:22:28.897Z,99902.69
2022-08-04T00:24:58.134Z,99900.03
2022-08-04T00:27:29.908Z,99905.47
2022-08-04T00:29:58.806Z,99904.63
2022-08-04T00:32:34.650Z,99900.25
2022-08-04T00:35:04.224Z,99893.19
2022-08-04T00:37:34.851Z,99899.50
2022-08-04T00:40:12.549Z,99896.88
2022-08-04T00:42:58.464Z,99890.66
2022-08-04T00:46:15.947Z,99887.13
2022-08-04T00:48:51.633Z,99876.50
2022-08-04T00:51:45.163Z,99887.31
2022-08-04T00:54:25.515Z,99882.06
2022-08-04T00:57:30.135Z,99882.16
2022-08-04T01:00:10.457Z,99884.88
2022-08-04T01:02:53.665Z,99875.22
2022-08-04T01:05:26.190Z,99873.53
2022-08-04T01:08:24.374Z,99869.16
2022-08-04T01:11:04.622Z,99872.81
2022-08-04T01:13:55.213Z,99867.53
2022-08-04T01:16:26.869Z,99874.75
2022-08-04T01:19:01.005Z,99875.72
2022-08-04T01:22:00.862Z,99863.34
2022-08-04T01:24:43.995Z,99865.22
2022-08-04T01:27:19.745Z,99856.44
2022-08-04T01:29:55.167Z,99855.63
2022-08-04T01:32:28.903Z,99854.88
2022-08-04T01:35:04.537Z,99848.72
2022-08-04T01:37:46.491Z,99839.94
2022-08-04T01:40:16.050Z,99834.72
2022-08-04T01:42:46.447Z,99839.22
2022-08-04T01:45:16.792Z,99838.38
2022-08-04T01:47:53.025Z,99827.69
2022-08-04T01:50:22.323Z,99835.72
2022-08-04T01:52:54.342Z,99831.25
2022-08-04T01:55:24.039Z,99820.63
2022-08-04T01:58:13.591Z,99824.19
2022-08-04T02:00:56.233Z,99823.34
2022-08-04T02:04:18.686Z,99822.44
2022-08-04T02:06:29.222Z,99816.28
2022-08-04T02:09:10.015Z,99813.59
2022-08-04T02:11:42.252Z,99823.44
2022-08-04T02:14:39.649Z,99820.78
2022-08-04T02:17:12.255Z,99819.03
2022-08-04T02:19:57.314Z,99815.50
2022-08-04T02:22:28.563Z,99812.88
2022-08-04T02:25:02.422Z,99812.97
2022-08-04T02:27:59.791Z,99803.25
2022-08-04T02:30:31.988Z,99803.34
2022-08-04T02:33:04.559Z,99808.75
2022-08-04T02:35:37.651Z,99809.72
2022-08-04T02:38:17.526Z,99816.00
2022-08-04T02:40:59.212Z,99801.84
2022-08-04T02:43:51.758Z,99803.75
2022-08-04T02:46:20.719Z,99813.72
2022-08-04T02:48:52.944Z,99806.69
2022-08-04T02:51:24.587Z,99808.59
2022-08-04T02:53:56.253Z,99805.13
2022-08-04T02:56:26.462Z,99809.69
2022-08-04T02:59:00.530Z,99802.69
2022-08-04T03:01:29.391Z,99810.88
2022-08-04T03:04:12.196Z,99802.09
2022-08-04T03:07:21.545Z,99797.88
2022-08-04T03:10:13.743Z,99798.03
2022-08-04T03:13:18.387Z,99801.75
2022-08-04T03:16:02.248Z,99800.97
2022-08-04T03:19:03.429Z,99797.56
2022-08-04T03:22:06.893Z,99790.63
2022-08-04T03:25:00.561Z,99788.94
2022-08-04T03:28:01.341Z,99782.88
2022-08-04T03:30:43.952Z,99784.78
2022-08-04T03:33:50.604Z,99787.59
2022-08-04T03:36:59.965Z,99787.78
2022-08-04T03:40:04.745Z,99790.59
2022-08-04T03:43:57.155Z,99788.97
2022-08-04T03:46:45.788Z,99789.09
2022-08-04T03:49:50.049Z,99790.13
2022-08-04T03:52:58.494Z,99788.53
2022-08-04T03:56:04.770Z,99787.78
2022-08-04T03:58:48.598Z,99780.75
2022-08-04T04:01:57.853Z,99785.31
2022-08-04T04:04:48.356Z,99788.09
2022-08-04T04:08:06.588Z,99787.28
2022-08-04T04:11:12.862Z,99793.59
2022-08-04T04:14:07.182Z,99787.50
2022-08-04T04:16:56.795Z,99797.38
2022-08-04T04:19:38.552Z,99794.84
2022-08-04T04:22:24.201Z,99795.81
2022-08-04T04:25:18.769Z,99786.13
2022-08-04T04:28:43.615Z,99782.66
2022-08-04T04:31:03.520Z,99791.63
2022-08-04T04:33:45.160Z,99782.78
2022-08-04T04:36:20.289Z,99787.25
2022-08-04T04:39:05.295Z,99796.19
2022-08-04T04:41:51.548Z,99790.94
2022-08-04T04:44:52.360Z,99794.56
2022-08-04T04:48:07.282Z,99799.03
2022-08-04T04:50:32.540Z,99792.88
2022-08-04T04:53:12.052Z,99796.47
2022-08-04T04:55:48.308Z,99793.81
2022-08-04T04:58:21.205Z,99793.88
2022-08-04T05:01:15.910Z,99790.38
2022-08-04T05:03:57.957Z,99799.22
2022-08-04T05:06:46.264Z,99796.63
2022-08-04T05:09:40.560Z,99801.03
2022-08-04T05:14:22.847Z,99798.38
2022-08-04T05:15:17.582Z,99806.34
2022-08-04T05:17:54.241Z,99803.66
2022-08-04T05:20:26.825Z,99803.59
2022-08-04T05:22:59.168Z,99811.59
2022-08-04T05:25:35.670Z,99806.25
2022-08-04T05:28:10.083Z,99804.44
2022-08-04T05:30:48.277Z,99812.44
2022-08-04T05:33:24.901Z,99812.41
2022-08-04T05:36:19.107Z,99809.75
2022-08-04T05:38:53.467Z,99813.22
2022-08-04T05:41:23.390Z,99806.06
2022-08-04T05:44:03.126Z,99808.63
2022-08-04T05:46:33.103Z,99820.06
2022-08-04T05:49:03.880Z,99816.44
2022-08-04T05:51:34.725Z,99822.53
2022-08-04T05:54:04.195Z,99817.97
2022-08-04T05:56:34.818Z,99814.34
2022-08-04T05:59:04.712Z,99808.84
2022-08-04T06:01:55.394Z,99810.44
2022-08-04T06:04:28.554Z,99815.59
2022-08-04T06:06:56.944Z,99806.59
2022-08-04T06:09:25.423Z,99802.06
2022-08-04T06:12:03.019Z,99807.28
2022-08-04T06:14:37.811Z,99800.94
2022-08-04T06:18:33.751Z,99802.53
2022-08-04T06:20:18.179Z,99798.81
2022-08-04T06:22:54.794Z,99798.59
2022-08-04T06:25:26.505Z,99798.47
2022-08-04T06:27:57.011Z,99803.59
2022-08-04T06:30:27.342Z,99798.91
2022-08-04T06:33:03.814Z,99806.69
2022-08-04T06:35:36.060Z,99799.38
2022-08-04T06:38:06.214Z,99798.22
2022-08-04T06:40:35.801Z,99804.22
2022-08-04T06:43:07.094Z,99802.19
2022-08-04T06:45:38.865Z,99799.25
2022-08-04T06:48:08.679Z,99806.09
2022-08-04T06:51:32.822Z,99808.47
2022-08-04T06:53:28.179Z,99808.16
2022-08-04T06:55:58.163Z,99795.25
2022-08-04T06:58:28.305Z,99805.63
2022-08-04T07:01:01.775Z,99796.44
2022-08-04T07:03:31.990Z,99798.00
2022-08-04T07:06:06.125Z,99803.03
2022-08-04T07:08:43.327Z,99802.72
2022-08-04T07:11:12.936Z,99795.31
2022-08-04T07:13:45.171Z,99793.25
2022-08-04T07:16:15.528Z,99796.50
2022-08-04T07:18:44.139Z,99797.22
2022-08-04T07:21:23.293Z,99796.91
2022-08-04T07:23:52.211Z,99803.69
2022-08-04T07:26:21.005Z,99802.50
2022-08-04T07:28:49.375Z,99804.88
2022-08-04T07:31:33.707Z,99803.69
2022-08-04T07:34:16.943Z,99803.34
2022-08-04T07:36:55.729Z,99803.94
2022-08-04T07:39:28.685Z,99795.66
2022-08-04T07:42:01.353Z,99809.63
2022-08-04T07:44:32.141Z,99807.59
2022-08-04T07:47:03.610Z,99800.94
2022-08-04T07:49:54.685Z,99808.59
2022-08-04T07:52:23.456Z,99801.16
2022-08-04T07:54:52.765Z,99807.13
2022-08-04T07:57:41.003Z,99805.94
2022-08-04T08:00:16.237Z,99807.41
2022-08-04T08:02:49.462Z,99801.78
2022-08-04T08:05:20.170Z,99803.31
2022-08-04T08:07:54.496Z,99806.53
2022-08-04T08:10:24.224Z,99808.84
2022-08-04T08:12:53.875Z,99807.66
2022-08-04T08:15:23.213Z,99810.94
2022-08-04T08:17:58.322Z,99809.69
2022-08-04T08:20:32.826Z,99796.66
2022-08-04T08:23:04.525Z,99799.91
2022-08-04T08:25:34.119Z,99800.47
2022-08-04T08:28:05.121Z,99801.09
2022-08-04T08:30:34.629Z,99796.25
2022-08-04T08:33:06.902Z,99792.25
2022-08-04T08:35:53.382Z,99789.25
2022-08-04T08:38:42.026Z,99786.94
2022-08-04T08:41:40.812Z,99791.91
2022-08-04T08:44:37.460Z,99788.69
2022-08-04T08:47:26.692Z,99783.66
2022-08-04T08:50:20.850Z,99788.50
2022-08-04T08:53:03.741Z,99789.03
2022-08-04T08:55:49.594Z,99779.72
2022-08-04T08:58:43.204Z,99782.91
2022-08-04T09:01:27.249Z,99799.47
2022-08-04T09:04:23.623Z,99787.28
2022-08-04T09:07:07.240Z,99790.28
2022-08-04T09:09:49.927Z,99800.59
2022-08-04T09:12:29.222Z,99797.44
2022-08-04T09:15:05.207Z,99792.38
2022-08-04T09:17:40.823Z,99795.38
2022-08-04T09:20:16.927Z,99788.53
2022-08-04T09:22:51.338Z,99789.88
2022-08-04T09:25:25.591Z,99806.34
2022-08-04T09:28:04.299Z,99792.38
2022-08-04T09:30:44.892Z,99801.53
2022-08-04T09:33:44.271Z,99799.16
2022-08-04T09:36:25.764Z,99800.22
2022-08-04T09:39:09.950Z,99801.47
2022-08-04T09:41:49.383Z,99805.56
2022-08-04T09:44:48.894Z,99798.88
2022-08-04T09:47:39.594Z,99800.19
2022-08-04T09:50:33.284Z,99806.91
2022-08-04T09:53:12.978Z,99797.66
2022-08-04T09:55:58.880Z,99806.53
2022-08-04T09:58:48.000Z,99800.84
2022-08-04T10:01:23.373Z,99809.53
2022-08-04T10:03:57.324Z,99809.16
2022-08-04T10:06:49.249Z,99809.44
2022-08-04T10:09:34.569Z,99806.19
2022-08-04T10:12:18.553Z,99808.25
2022-08-04T10:14:53.884Z,99810.34
2022-08-04T10:17:38.859Z,99818.88
2022-08-04T10:20:45.937Z,99812.25
2022-08-04T10:23:13.887Z,99821.81
2022-08-04T10:26:07.667Z,99825.44
2022-08-04T10:28:39.107Z,99824.31
2022-08-04T10:31:11.020Z,99829.06
2022-08-04T10:33:50.394Z,99829.38
2022-08-04T10:36:23.863Z,99827.25
2022-08-04T10:38:58.718Z,99825.16
2022-08-04T10:41:36.122Z,99826.53
2022-08-04T10:44:15.998Z,99828.78
2022-08-04T10:46:48.974Z,99829.28
2022-08-04T10:49:25.030Z,99824.53
2022-08-04T10:52:00.621Z,99826.94
2022-08-04T10:54:43.781Z,99835.84
2022-08-04T10:57:16.573Z,99840.88
2022-08-04T10:59:52.930Z,99837.00
2022-08-04T11:02:35.270Z,99835.56
2022-08-04T11:05:20.311Z,99837.28
2022-08-04T11:07:52.742Z,99844.56
2022-08-04T11:10:24.908Z,99843.78
2022-08-04T11:13:01.810Z,99838.16
2022-08-04T11:15:37.925Z,99841.03
2022-08-04T11:18:16.210Z,99837.59
2022-08-04T11:20:54.193Z,99838.03
2022-08-04T11:23:28.340Z,99838.72
2022-08-04T11:26:02.181Z,99841.59
2022-08-04T11:28:38.643Z,99843.38
2022-08-04T11:31:12.221Z,99853.22
2022-08-04T11:33:51.097Z,99852.81
2022-08-04T11:36:33.269Z,99860.38
2022-08-04T11:39:13.707Z,99862.53
2022-08-04T11:41:52.444Z,99859.91
2022-08-04T11:44:32.679Z,99865.41
2022-08-04T11:47:05.939Z,99865.53
2022-08-04T11:49:57.592Z,99870.44
2022-08-04T11:52:31.007Z,99874.50
2022-08-04T11:55:05.552Z,99882.06
2022-08-04T11:57:35.681Z,99888.03
2022-08-04T12:00:12.366Z,99891.19
2022-08-04T12:03:13.535Z,99880.78
2022-08-04T12:05:53.570Z,99892.94
2022-08-04T12:08:42.169Z,99887.16
2022-08-04T12:11:22.436Z,99882.31
2022-08-04T12:14:00.933Z,99881.78
2022-08-04T12:16:37.563Z,99889.31
2022-08-04T12:19:15.405Z,99889.50
2022-08-04T12:21:53.221Z,99886.94
2022-08-04T12:24:32.247Z,99887.78
2022-08-04T12:27:08.058Z,99883.25
2022-08-04T12:29:41.359Z,99871.38
2022-08-04T12:32:21.861Z,99866.75
2022-08-04T12:34:59.228Z,99871.75
2022-08-04T12:37:37.159Z,99875.25
2022-08-04T12:40:27.553Z,99870.69
2022-08-04T12:43:06.896Z,99870.69
2022-08-04T12:45:36.727Z,99875.06
2022-08-04T12:48:07.033Z,99874.00
2022-08-04T12:50:38.111Z,99879.97
2022-08-04T12:53:16.997Z,99877.78
2022-08-04T12:56:02.745Z,99874.31
2022-08-04T12:58:43.309Z,99883.53
2022-08-04T13:02:08.869Z,99876.28
2022-08-04T13:04:14.015Z,99874.88
2022-08-04T13:06:44.335Z,99879.16
2022-08-04T13:09:20.318Z,99876.34
2022-08-04T13:11:53.990Z,99879.84
2022-08-04T13:14:28.210Z,99877.22
2022-08-04T13:17:01.210Z,99880.13
2022-08-04T13:19:31.702Z,99872.88
2022-08-04T13:22:10.139Z,99875.78
2022-08-04T13:24:57.122Z,99874.13
2022-08-04T13:27:43.522Z,99876.28
2022-08-04T13:30:22.724Z,99869.41
2022-08-04T13:32:56.589Z,99865.03
2022-08-04T13:35:54.582Z,99852.56
2022-08-04T13:38:16.047Z,99865.53
2022-08-04T13:40:47.076Z,99861.16
2022-08-04T13:44:15.535Z,99859.44
2022-08-04T13:46:27.098Z,99859.44
2022-08-04T13:49:25.912Z,99862.91
2022-08-04T13:51:58.056Z,99861.16
2022-08-04T13:54:32.631Z,99858.41
2022-08-04T13:57:04.524Z,99862.91
2022-08-04T13:59:38.633Z,99856.81
2022-08-04T14:02:09.948Z,99856.22
2022-08-04T14:04:50.830Z,99854.59
2022-08-04T14:07:22.569Z,99846.75
2022-08-04T14:10:02.525Z,99850.31
2022-08-04T14:12:38.677Z,99853.22
2022-08-04T14:16:02.046Z,99853.44
2022-08-04T14:18:26.519Z,99845.59
2022-08-04T14:21:08.327Z,99861.16
2022-08-04T14:23:47.389Z,99860.59
2022-08-04T14:26:31.367Z,99860.16
2022-08-04T14:29:26.864Z,99867.69
2022-08-04T14:32:06.073Z,99855.50
2022-08-04T14:34:45.456Z,99851.31
2022-08-04T14:37:27.614Z,99859.69
2022-08-04T14:40:19.186Z,99848.31
2022-08-04T14:42:55.681Z,99853.13
2022-08-04T14:45:30.957Z,99851.66
2022-08-04T14:48:02.107Z,99843.94
2022-08-04T14:50:39.221Z,99855.19
2022-08-04T14:53:09.394Z,99849.19
2022-08-04T14:55:39.045Z,99852.19
2022-08-04T14:58:34.256Z,99855.16
2022-08-04T15:00:59.019Z,99857.38
2022-08-04T15:03:29.526Z,99848.66
2022-08-04T15:06:02.508Z,99848.00
2022-08-04T15:08:32.976Z,99852.78
2022-08-04T15:11:03.105Z,99851.22
2022-08-04T15:13:33.339Z,99853.22
2022-08-04T15:16:07.087Z,99855.16
2022-08-04T15:18:42.326Z,99851.66
2022-08-04T15:21:12.429Z,99853.56
2022-08-04T15:23:40.828Z,99855.50
2022-08-04T15:26:13.827Z,99865.59
2022-08-04T15:28:47.993Z,99869.34
2022-08-04T15:32:07.375Z,99867.69
2022-08-04T15:34:09.746Z,99863.41
2022-08-04T15:36:56.174Z,99868.91
2022-08-04T15:39:39.590Z,99874.50
2022-08-04T15:42:20.916Z,99863.84
2022-08-04T15:45:09.167Z,99858.78
2022-08-04T15:47:37.732Z,99864.44
2022-08-04T15:50:10.389Z,99854.84
2022-08-04T15:53:10.731Z,99855.19
2022-08-04T15:55:43.968Z,99860.94
2022-08-04T15:58:13.870Z,99851.25
2022-08-04T16:01:17.056Z,99864.13
2022-08-04T16:03:53.218Z,99874.22
2022-08-04T16:07:05.246Z,99870.00
2022-08-04T16:09:45.339Z,99860.44
2022-08-04T16:12:54.264Z,99864.16
2022-08-04T16:15:40.155Z,99854.25
2022-08-04T16:18:14.466Z,99861.03
2022-08-04T16:21:00.205Z,99867.59
2022-08-04T16:24:00.620Z,99859.63
2022-08-04T16:26:54.332Z,99861.75
2022-08-04T16:29:46.824Z,99856.16
2022-08-04T16:32:26.480Z,99841.19
2022-08-04T16:34:59.743Z,99827.94
2022-08-04T16:37:33.978Z,99827.53
2022-08-04T16:40:34.729Z,99821.81
2022-08-04T16:43:07.764Z,99835.84
2022-08-04T16:45:53.909Z,99850.06
2022-08-04T16:48:27.081Z,99858.06
2022-08-04T16:51:04.888Z,99847.44
2022-08-04T16:54:04.071Z,99839.59
2022-08-04T16:56:32.946Z,99842.66
2022-08-04T16:59:10.242Z,99850.47
2022-08-04T17:01:39.406Z,99846.44
2022-08-04T17:04:08.197Z,99853.56
2022-08-04T17:06:38.675Z,99854.44
2022-08-04T17:09:10.817Z,99866.81
2022-08-04T17:11:41.048Z,99865.81
2022-08-04T17:14:10.073Z,99863.03
2022-08-04T17:16:40.900Z,99862.38
2022-08-04T17:19:24.198Z,99859.75
2022-08-04T17:22:05.325Z,99855.50
2022-08-04T17:24:35.888Z,99854.91
2022-08-04T17:28:19.521Z,99849.13
2022-08-04T17:29:55.246Z,99845.38
2022-08-04T17:32:24.238Z,99845.31
2022-08-04T17:34:55.031Z,99841.47
2022-08-04T17:37:39.202Z,99832.19
2022-08-04T17:40:11.274Z,99834.50
2022-08-04T17:42:42.299Z,99828.88
2022-08-04T17:48:09.943Z,99839.97
2022-08-04T17:50:43.377Z,99842.81
2022-08-04T17:53:13.352Z,99846.53
2022-08-04T17:55:44.268Z,99847.44
2022-08-04T17:58:22.388Z,99857.22
2022-08-04T18:01:22.513Z,99857.13
2022-08-04T18:03:52.860Z,99867.00
2022-08-04T18:06:25.586Z,99875.88
2022-08-04T18:08:59.519Z,99872.06
2022-08-04T18:11:53.773Z,99867.31
2022-08-04T18:14:28.671Z,99869.63
2022-08-04T18:16:57.551Z,99866.56
2022-08-04T18:19:25.997Z,99878.75
2022-08-04T18:22:01.112Z,99878.25
2022-08-04T18:24:35.915Z,99879.66
2022-08-04T18:27:21.782Z,99877.47
2022-08-04T18:30:15.472Z,99881.47
2022-08-04T18:33:04.183Z,99886.38
2022-08-04T18:35:30.720Z,99885.09
2022-08-04T18:38:22.426Z,99891.91
2022-08-04T18:40:54.188Z,99890.59
2022-08-04T18:43:28.005Z,99884.69
2022-08-04T18:46:00.134Z,99889.56
2022-08-04T18:48:36.603Z,99888.13
2022-08-04T18:51:22.518Z,99885.81
2022-08-04T18:53:55.100Z,99878.13
2022-08-04T18:56:29.873Z,99875.81
2022-08-04T18:59:00.309Z,99877.06
2022-08-04T19:02:12.692Z,99883.69
2022-08-04T19:07:29.531Z,99877.16
2022-08-04T19:09:57.965Z,99880.09
2022-08-04T19:12:28.732Z,99887.41
2022-08-04T19:15:07.993Z,99888.53
2022-08-04T19:17:54.238Z,99894.16
2022-08-04T19:20:26.787Z,99900.75
2022-08-04T19:24:27.023Z,99900.09
2022-08-04T19:25:59.005Z,99905.69
2022-08-04T19:28:34.157Z,99911.28
2022-08-04T19:31:03.537Z,99913.31
2022-08-04T19:33:58.066Z,99918.94
2022-08-04T19:36:27.738Z,99915.69
2022-08-04T19:38:58.349Z,99926.75
2022-08-04T19:41:27.132Z,99933.25
2022-08-04T19:43:55.641Z,99933.53
2022-08-04T19:46:25.744Z,99934.72
2022-08-04T19:48:59.371Z,99927.97
2022-08-04T19:51:30.538Z,99930.88
2022-08-04T19:54:02.711Z,99930.34
2022-08-04T19:56:40.394Z,99936.88
2022-08-04T19:59:10.850Z,99935.25
2022-08-04T20:01:45.276Z,99933.69
2022-08-04T20:04:15.758Z,99938.38
2022-08-04T20:06:44.444Z,99946.63
2022-08-04T20:09:25.724Z,99951.34
2022-08-04T20:11:56.201Z,99945.41
2022-08-04T20:14:32.819Z,99947.47
2022-08-04T20:17:03.379Z,99950.31
2022-08-04T20:19:39.829Z,99957.69
2022-08-04T20:22:50.321Z,99961.44
2022-08-04T20:25:18.026Z,99963.44
2022-08-04T20:28:00.065Z,99969.81
2022-08-04T20:30:30.025Z,99973.53
2022-08-04T20:33:00.028Z,99970.97
2022-08-04T20:35:29.746Z,99972.88
2022-08-04T20:38:01.368Z,99972.13
2022-08-04T20:40:30.351Z,99980.34
2022-08-04T20:42:59.545Z,99976.94
2022-08-04T20:45:56.287Z,99976.16
2022-08-04T20:48:16.497Z,99979.97
2022-08-04T20:50:47.492Z,99987.25
2022-08-04T20:53:17.369Z,99991.84
2022-08-04T20:55:55.527Z,99989.28
2022-08-04T20:58:27.435Z,99993.94
2022-08-04T21:00:57.013Z,100003.00
2022-08-04T21:03:49.317Z,100009.44
2022-08-04T21:06:15.787Z,100005.09
2022-08-04T21:08:56.930Z,100012.41
2022-08-04T21:11:32.800Z,100019.66
2022-08-04T21:14:01.813Z,100023.41
2022-08-04T21:16:54.936Z,100021.75
2022-08-04T21:19:18.708Z,100036.16
2022-08-04T21:21:53.456Z,100048.97
2022-08-04T21:24:26.271Z,100052.75
2022-08-04T21:26:56.966Z,100073.44
2022-08-04T21:29:34.684Z,100074.53
2022-08-04T21:32:08.561Z,100085.41
2022-08-04T21:34:39.825Z,100095.28
2022-08-04T21:37:11.379Z,100092.72
2022-08-04T21:39:54.835Z,100099.91
2022-08-04T21:42:30.594Z,100100.03
2022-08-04T21:44:59.434Z,100095.63
2022-08-04T21:47:46.576Z,100086.81
2022-08-04T21:50:19.783Z,100079.81
2022-08-04T21:52:50.518Z,100074.63
2022-08-04T21:55:19.697Z,100072.16
2022-08-04T21:57:49.455Z,100062.47
2022-08-04T22:00:20.313Z,100061.75
2022-08-04T22:02:53.406Z,100068.94
2022-08-04T22:05:22.423Z,100069.97
2022-08-04T22:07:52.675Z,100092.34
2022-08-04T22:10:31.912Z,100083.50
2022-08-04T22:13:07.071Z,100087.22
2022-08-04T22:16:05.053Z,100101.59
2022-08-04T22:18:27.661Z,100100.00
2022-08-04T22:20:56.380Z,100122.34
2022-08-04T22:23:26.111Z,100147.44
2022-08-04T22:25:56.066Z,100146.69
2022-08-04T22:28:28.432Z,100139.66
2022-08-04T22:30:58.197Z,100123.69
2022-08-04T22:33:54.746Z,100110.44
2022-08-04T22:36:17.085Z,100108.84
2022-08-04T22:38:53.435Z,100099.22
2022-08-04T22:41:34.220Z,100086.03
2022-08-04T22:44:21.077Z,100049.78
2022-08-04T22:46:52.802Z,100021.47
2022-08-04T22:49:25.287Z,100034.19
2022-08-04T22:52:10.001Z,100037.91
2022-08-04T22:54:42.879Z,100044.38
2022-08-04T22:57:13.949Z,100046.31
2022-08-04T22:59:43.506Z,100034.88
2022-08-04T23:02:11.913Z,100018.16
2022-08-04T23:04:43.089Z,99984.47
2022-08-04T23:07:12.778Z,99970.41
2022-08-04T23:09:49.874Z,99952.81
2022-08-04T23:12:26.254Z,99944.97
2022-08-04T23:14:56.575Z,99916.75
2022-08-04T23:17:27.737Z,99925.84
2022-08-04T23:19:59.018Z,99922.50
2022-08-04T23:22:41.786Z,99912.91
2022-08-04T23:25:16.155Z,99919.28
2022-08-04T23:27:50.564Z,99913.19
2022-08-04T23:30:21.756Z,99906.16
2022-08-04T23:32:53.529Z,99905.41
2022-08-04T23:35:22.592Z,99909.13
2022-08-04T23:37:56.147Z,99904.75
2022-08-04T23:40:33.474Z,99903.13
2022-08-04T23:43:17.425Z,99876.56
2022-08-04T23:46:07.349Z,99886.44
2022-08-04T23:48:35.488Z,99863.38
2022-08-04T23:51:13.649Z,99883.00
2022-08-04T23:54:01.928Z,99884.78
2022-08-04T23:56:34.602Z,99883.09
2022-08-04T23:59:04.540Z,99883.19
